CheckWX is a tool to help pilots better visualize weather data.  It is not intended as a substitute for an official pre-flight weather briefing.

08:42:59 UTC

KDUJ METAR
Dubois Regional Airport
Dubois, Pennsylvania, USA
Current

43 mins ago

KDUJ 180800Z AUTO 28008KT 10SM BKN006 03/02 A2989 RMK AO2 T00280017 $
Observed
Oct-18 @ 08:00 UTC
Wind
  • 280° at 8 KTS
Visibility
10 SM
Flight Rules
IFR
Cloud Levels
  • Broken at 600' AGL
Temperature
C / 37°F
Dewpoint
C / 36°F
Humidity
93%
Altimeter
29.89" Hg
Pressure
1012.22 hPa
Previous

50 mins ago

KDUJ 180753Z AUTO 29006KT 10SM SCT006 03/02 A2989 RMK AO2 SLP131 T00280017 $
Observed
Oct-18 @ 07:53 UTC
Wind
  • 290° at 6 KTS
Visibility
10 SM
Flight Rules
VFR
Cloud Levels
  • Scattered at 600' AGL
Temperature
C / 37°F
Dewpoint
C / 36°F
Humidity
93%
Altimeter
29.89" Hg
Pressure
1012.22 hPa
Previous

2 hours ago

KDUJ 180653Z AUTO 28009KT 10SM FEW008 03/02 A2987 RMK AO2 SLP125 T00280017 $
Observed
Oct-18 @ 06:53 UTC
Wind
  • 280° at 9 KTS
Visibility
10 SM
Flight Rules
VFR
Cloud Levels
  • Few at 800' AGL
Temperature
C / 37°F
Dewpoint
C / 36°F
Humidity
93%
Altimeter
29.87" Hg
Pressure
1011.52 hPa